Time;durP1;ratioP1;P1;durP2;ratioP2;P2;SDS_P1;SDS_P2;PMS_P1;PMS_P2;Temp;Humidity;BMP_temperature;BMP_pressure;BME280_temperature;BME280_humidity;BME280_pressure;Samples;Min_cycle;Max_cycle;Signal;HPM_P1;HPM_P2
2024/03/09 00:03:34;;;;;;;;;;;;;;;;;;;;;
2024/03/09 00:07:40;;;;;;;63.70;32.30;;;;;;;0.18;77.90;100397.52;126443;1292;636033;-65
2024/03/09 00:11:33;;;;;;;41.90;21.30;;;;;;;0.14;77.76;100393.16;129115;1270;128748;-69
2024/03/09 00:15:35;;;;;;;57.00;28.30;;;;;;;0.10;78.16;100387.38;128643;1284;114873;-61
2024/03/09 00:19:30;;;;;;;;;;;;;;;;;;;;;
2024/03/09 00:23:33;;;;;;;38.30;20.10;;;;;;;0.02;78.47;100387.59;122879;1305;114919;-60
2024/03/09 00:27:28;;;;;;;;;;;;;;;;;;;;;
2024/03/09 00:31:20;;;;;;;61.90;26.30;;;;;;;-0.05;78.76;100381.66;124899;1326;114955;-61
2024/03/09 00:34:58;;;;;;;;;;;;;;;;;;;;;
2024/03/09 00:38:47;;;;;;;56.10;25.90;;;;;;;-0.11;79.16;100377.48;123642;1333;114878;-62
2024/03/09 00:47:01;;;;;;;57.90;27.40;;;;;;;-0.12;78.99;100370.27;126335;1295;636314;-61
2024/03/09 00:50:55;;;;;;;;;;;;;;;;;;;;;
2024/03/09 00:54:52;;;;;;;49.10;23.60;;;;;;;-0.17;79.29;100364.00;128387;1278;114811;-60
2024/03/09 00:58:38;;;;;;;49.80;22.70;;;;;;;-0.21;79.43;100354.00;128115;1294;114922;-61
2024/03/09 01:02:18;;;;;;;;;;;;;;;;;;;;;
2024/03/09 01:06:21;;;;;;;58.90;28.60;;;;;;;-0.26;79.70;100342.80;127871;1298;114830;-62
2024/03/09 01:10:22;;;;;;;49.70;24.80;;;;;;;-0.29;79.92;100337.55;127572;1287;114890;-62
2024/03/09 01:14:19;;;;;;;;;;;;;;;;;;;;;
2024/03/09 01:18:14;;;;;;;;;;;;;;;;;;;;;
2024/03/09 01:22:15;;;;;;;;;;;;;;;;;;;;;
2024/03/09 01:26:11;;;;;;;;;;;;;;;;;;;;;
2024/03/09 01:29:58;;;;;;;;;;;;;;;;;;;;;
2024/03/09 01:34:24;;;;;;;;;;;;;;;;;;;;;
2024/03/09 01:38:19;;;;;;;;;;;;;;;;;;;;;
2024/03/09 01:42:11;;;;;;;;;;;;;;;;;;;;;
2024/03/09 01:46:46;;;;;;;42.10;20.80;;;;;;;-0.23;81.38;100295.05;126487;1296;636524;-62
2024/03/09 01:50:19;;;;;;;;;;;;;;;-0.25;81.26;100289.45;128634;1276;128755;-62
2024/03/09 01:54:19;;;;;;;22.20;9.80;;;;;;;-0.25;81.40;100287.33;128593;1278;115684;-62
2024/03/09 01:58:05;;;;;;;47.20;24.10;;;;;;;-0.25;81.50;100286.63;126837;1289;114862;-62
2024/03/09 02:02:06;;;;;;;30.80;15.20;;;;;;;-0.26;81.49;100282.26;123450;1286;114909;-62
2024/03/09 02:06:06;;;;;;;;;;;;;;;;;;;;;
2024/03/09 02:10:01;;;;;;;55.60;24.70;;;;;;;-0.26;81.52;100279.97;125680;1301;114947;-61
2024/03/09 02:14:03;;;;;;;47.80;21.60;;;;;;;-0.28;81.45;100275.24;125049;1302;128555;-61
2024/03/09 02:17:45;;;;;;;;;;;;;;;;;;;;;
2024/03/09 02:26:06;;;;;;;32.50;16.40;;;;;;;-0.36;81.73;100271.42;125810;1301;635848;-61
2024/03/09 02:30:04;;;;;;;44.60;22.10;;;;;;;-0.42;81.76;100268.11;128148;1295;128673;-61
2024/03/09 02:33:51;;;;;;;;;;;;;;;;;;;;;
2024/03/09 02:37:58;;;;;;;56.00;28.50;;;;;;;-0.49;81.87;100260.79;127701;1301;114934;-62
2024/03/09 02:42:00;;;;;;;58.10;27.50;;;;;;;-0.51;82.35;100261.85;123535;1287;114943;-62
2024/03/09 02:46:05;;;;;;;47.10;23.10;;;;;;;-0.51;82.41;100254.30;126355;1295;114966;-62
2024/03/09 02:49:59;;;;;;;14.20;6.80;;;;;;;-0.50;82.59;100243.77;125877;1305;114785;-63
2024/03/09 02:54:00;;;;;;;22.70;10.90;;;;;;;-0.50;82.53;100245.35;125256;1313;129685;-62
2024/03/09 02:57:54;;;;;;;56.90;27.80;;;;;;;-0.50;82.83;100245.53;124857;1325;115233;-62
2024/03/09 03:06:21;;;;;;;35.20;17.80;;;;;;;-0.47;82.81;100236.55;125558;1305;639445;-62
2024/03/09 03:10:16;;;;;;;56.10;26.40;;;;;;;-0.48;82.90;100234.63;127300;1301;130506;-69
2024/03/09 03:14:24;;;;;;;29.60;15.60;;;;;;;-0.49;82.98;100235.52;126367;1296;115042;-65
2024/03/09 03:18:26;;;;;;;54.30;25.70;;;;;;;-0.52;83.01;100231.34;121798;1318;5524477;-62
2024/03/09 03:22:24;;;;;;;44.60;20.10;;;;;;;-0.54;82.86;100231.34;123868;1333;114977;-69
2024/03/09 03:30:30;;;;;;;;;;;;;;;;;;;;;
2024/03/09 03:34:37;;;;;;;59.60;27.20;;;;;;;-0.60;83.01;100221.02;127912;1282;130089;-69
2024/03/09 03:38:24;;;;;;;;;;;;;;;;;;;;;
2024/03/09 03:42:27;;;;;;;58.30;28.70;;;;;;;-0.66;83.41;100215.26;122931;1285;5506925;-67
2024/03/09 03:46:08;;;;;;;;;;;;;;;;;;;;;
2024/03/09 03:49:56;;;;;;;;;;;;;;;;;;;;;
2024/03/09 03:53:41;;;;;;;;;;;;;;;;;;;;;
2024/03/09 03:57:43;;;;;;;;;;;;;;;;;;;;;
2024/03/09 04:01:47;;;;;;;60.60;27.10;;;;;;;-0.73;83.61;100214.25;126013;1298;115031;-63
2024/03/09 04:05:49;;;;;;;51.90;23.40;;;;;;;-0.73;84.08;100210.91;124768;1327;114892;-62
2024/03/09 04:09:44;;;;;;;53.50;23.60;;;;;;;-0.74;83.95;100211.79;124725;1327;114944;-62
2024/03/09 04:13:34;;;;;;;40.60;19.20;;;;;;;-0.76;84.06;100210.75;124604;1330;115036;-62
2024/03/09 04:17:35;;;;;;;55.20;28.20;;;;;;;-0.77;84.26;100205.85;124620;1327;129719;-62
2024/03/09 04:21:26;;;;;;;;;;;;;;;;;;;;;
2024/03/09 04:25:55;;;;;;;;;;;;;;;;;;;;;
2024/03/09 04:29:56;;;;;;;48.20;22.00;;;;;;;-0.80;84.75;100198.84;126751;1292;128913;-63
2024/03/09 04:33:49;;;;;;;58.20;27.50;;;;;;;-0.83;84.57;100195.01;125936;1311;114954;-61
2024/03/09 04:37:49;;;;;;;55.00;26.40;;;;;;;-0.82;84.22;100194.30;121833;1317;5498843;-61
2024/03/09 04:41:43;;;;;;;32.20;15.00;;;;;;;-0.82;84.42;100189.39;124736;1328;114844;-63
2024/03/09 04:46:00;;;;;;;40.90;19.00;;;;;;;-0.84;84.78;100188.88;123783;1334;115059;-62
2024/03/09 04:54:06;;;;;;;;;;;;;;;;;;;;;
2024/03/09 04:58:00;;;;;;;;;;;;;;;;;;;;;
2024/03/09 05:02:02;;;;;;;51.10;22.60;;;;;;;-0.88;84.82;100183.63;126846;1287;114940;-63
2024/03/09 05:10:07;;;;;;;;;;;;;;;;;;;;;
2024/03/09 05:14:11;;;;;;;49.10;23.40;;;;;;;-0.92;85.07;100188.38;126086;1300;114952;-61
2024/03/09 05:18:07;;;;;;;45.40;20.80;;;;;;;-0.92;84.89;100189.26;125511;1300;114909;-63
2024/03/09 05:21:52;;;;;;;59.30;25.80;;;;;;;-0.92;85.05;100183.30;125344;1305;129701;-64
2024/03/09 05:25:54;;;;;;;63.20;28.50;;;;;;;-0.92;85.03;100185.21;124999;1310;114951;-62
2024/03/09 05:34:15;;;;;;;;;;;;;;;;;;;;;
2024/03/09 05:38:15;;;;;;;;;;;;;;;;;;;;;
2024/03/09 05:42:27;;;;;;;51.80;24.50;;;;;;;-0.84;85.59;100184.33;126474;1299;114966;-63
2024/03/09 05:46:29;;;;;;;58.90;25.60;;;;;;;-0.79;85.64;100183.05;122008;1313;5424420;-61
2024/03/09 05:50:23;;;;;;;;;;;;;;;;;;;;;
2024/03/09 05:54:15;;;;;;;;;;;;;;;;;;;;;
2024/03/09 05:58:09;;;;;;;;;;;;;;;;;;;;;
2024/03/09 06:02:16;;;;;;;;;;;;;;;;;;;;;
2024/03/09 06:10:09;;;;;;;32.60;12.50;;;;;;;-0.38;85.96;100175.45;126981;1286;114936;-62
2024/03/09 06:18:12;;;;;;;47.50;23.00;;;;;;;-0.17;86.17;100174.77;121669;1300;114967;-61
2024/03/09 06:22:06;;;;;;;37.50;17.30;;;;;;;-0.06;86.05;100173.46;124728;1327;115002;-62
2024/03/09 06:30:06;;;;;;;48.40;21.50;;;;;;;0.35;86.17;100170.64;126550;1295;636883;-61
2024/03/09 06:34:04;;;;;;;;;;;;;;;;;;;;;
2024/03/09 06:37:58;;;;;;;45.60;22.70;;;;;;;0.98;86.32;100166.61;127839;1284;114932;-62
2024/03/09 06:41:54;;;;;;;;;;;;;;;;;;;;;
2024/03/09 06:50:00;;;;;;;;;;;;;;;;;;;;;
2024/03/09 06:54:01;;;;;;;44.20;20.90;;;;;;;2.08;85.02;100160.62;125570;1309;114953;-69
2024/03/09 06:58:03;;;;;;;56.70;26.50;;;;;;;2.32;84.51;100157.39;124758;1308;129687;-65
2024/03/09 07:01:57;;;;;;;;;;;;;;;;;;;;;
2024/03/09 07:06:19;;;;;;;57.10;29.80;;;;;;;2.90;83.72;100154.17;125780;1307;635381;-67
2024/03/09 07:10:14;;;;;;;56.40;27.60;;;;;;;3.17;83.42;100145.14;128841;1272;128792;-67
2024/03/09 07:14:09;;;;;;;50.20;25.20;;;;;;;3.44;83.09;100140.13;128766;1275;114766;-68
2024/03/09 07:22:19;;;;;;;47.90;23.10;;;;;;;3.95;82.66;100135.20;127833;1299;114856;-67
2024/03/09 07:26:17;;;;;;;;;;;;;;;;;;;;;
2024/03/09 07:30:20;;;;;;;55.70;26.40;;;;;;;4.64;81.71;100138.02;125612;1309;130304;-67
2024/03/09 07:34:17;;;;;;;51.20;27.00;;;;;;;4.94;80.79;100129.21;124879;1311;114972;-69
2024/03/09 07:37:57;;;;;;;;;;;;;;;;;;;;;
2024/03/09 07:45:54;;;;;;;;;;;;;;;;;;;;;
2024/03/09 07:49:42;;;;;;;44.20;24.90;;;;;;;6.22;78.05;100115.60;128198;1289;128873;-65
2024/03/09 07:53:38;;;;;;;;;;;;;;;;;;;;;
2024/03/09 07:57:23;;;;;;;46.30;24.70;;;;;;;7.03;77.81;100112.20;126583;1292;114966;-65
2024/03/09 08:01:24;;;;;;;41.80;24.20;;;;;;;7.41;77.26;100107.02;122855;1310;114886;-63
2024/03/09 08:05:07;;;;;;;45.10;25.40;;;;;;;7.77;75.75;100105.55;125544;1318;114870;-62
2024/03/09 08:09:03;;;;;;;;;;;;;;;;;;;;;
2024/03/09 08:12:57;;;;;;;27.30;16.20;;;;;;;8.46;75.02;100102.14;124994;1307;129901;-63
2024/03/09 08:16:40;;;;;;;37.20;22.50;;;;;;;8.74;73.70;100098.07;124442;1315;114994;-62
2024/03/09 08:20:42;;;;;;;35.10;21.10;;;;;;;8.98;73.10;100097.48;124840;1325;114933;-62
2024/03/09 08:24:44;;;;;;;39.90;22.40;;;;;;;9.22;72.14;100096.55;123325;1337;114929;-63
2024/03/09 08:28:38;;;;;;;;;;;;;;;;;;;;;
2024/03/09 08:32:59;;;;;;;;;;;;;;;;;;;;;
2024/03/09 08:36:30;;;;;;;;;;;;;;;;;;;;;
2024/03/09 08:40:18;;;;;;;31.70;18.40;;;;;;;9.95;70.72;100081.09;127692;1300;114891;-64
2024/03/09 08:44:13;;;;;;;35.20;19.80;;;;;;;9.96;70.23;100078.02;127514;1293;114892;-63
2024/03/09 08:48:15;;;;;;;25.60;13.90;;;;;;;9.87;68.08;100079.36;123914;1280;114930;-62
2024/03/09 08:52:13;;;;;;;29.30;18.40;;;;;;;9.76;69.35;100079.75;127331;1287;114860;-62
2024/03/09 08:55:47;;;;;;;;;;;;;;;;;;;;;
2024/03/09 08:59:41;;;;;;;;;;;;;;;;;;;;;
2024/03/09 09:03:15;;;;;;;;;;;;;;;;;;;;;
2024/03/09 09:11:49;;;;;;;;;;;;;;;;;;;;;
2024/03/09 09:15:53;;;;;;;19.90;11.80;;;;;;;10.00;66.24;100059.77;127019;1306;128595;-62
2024/03/09 09:19:55;;;;;;;21.80;14.60;;;;;;;10.17;65.21;100054.98;126394;1302;115196;-64
2024/03/09 09:23:50;;;;;;;;;;;;;;;;;;;;;
2024/03/09 09:27:45;;;;;;;;;;;;;;;;;;;;;
2024/03/09 09:36:19;;;;;;;15.70;11.10;;;;;;;10.64;63.57;100018.45;125692;1299;638918;-63
2024/03/09 09:40:22;;;;;;;15.90;10.30;;;;;;;10.62;61.05;100014.98;127795;1280;127774;-62
2024/03/09 09:44:51;;;;;;;16.00;9.60;;;;;;;10.62;60.76;100015.34;126531;1294;114866;-63
2024/03/09 09:48:19;;;;;;;11.70;6.10;;;;;;;10.58;61.39;100013.04;121572;1305;5513764;-63
2024/03/09 09:52:20;;;;;;;12.40;8.00;;;;;;;10.64;60.25;100010.39;125260;1323;114782;-62
2024/03/09 09:56:15;;;;;;;12.30;8.20;;;;;;;10.60;59.86;100001.14;124561;1317;115022;-62
2024/03/09 10:00:01;;;;;;;;;;;;;;;;;;;;;
2024/03/09 10:08:28;;;;;;;15.00;7.10;;;;;;;10.68;59.33;99989.13;127272;1290;128826;-63
2024/03/09 10:12:24;;;;;;;12.90;6.90;;;;;;;10.66;57.78;99981.34;126756;1289;115206;-63
2024/03/09 10:16:28;;;;;;;12.80;7.90;;;;;;;10.56;58.43;99982.42;122345;1294;5592963;-63
2024/03/09 10:20:33;;;;;;;11.40;7.50;;;;;;;10.60;58.50;99973.27;126474;1309;114944;-64
2024/03/09 10:24:24;;;;;;;;;;;;;;;;;;;;;
2024/03/09 10:32:26;;;;;;;;;;;;;;;;;;;;;
2024/03/09 10:36:24;;;;;;;;;;;;;;;;;;;;;
2024/03/09 10:40:12;;;;;;;13.40;8.90;;;;;;;10.46;56.21;99946.56;127742;1292;114857;-64
2024/03/09 10:44:06;;;;;;;;;;;;;;;;;;;;;
2024/03/09 10:48:30;;;;;;;13.80;9.00;;;;;;;10.49;56.62;99947.83;122752;1308;114861;-63
2024/03/09 10:52:24;;;;;;;15.00;9.10;;;;;;;10.52;57.22;99943.92;125868;1314;116361;-67
2024/03/09 10:56:26;;;;;;;14.80;8.60;;;;;;;10.65;57.69;99941.98;125856;1314;114938;-68
2024/03/09 11:04:49;;;;;;;12.40;7.50;;;;;;;10.83;57.32;99930.42;126331;1294;636006;-67
2024/03/09 11:08:33;;;;;;;;;;;;;;;;;;;;;
2024/03/09 11:12:30;;;;;;;11.40;7.10;;;;;;;10.81;56.55;99921.09;126976;1290;114932;-68
2024/03/09 11:16:36;;;;;;;12.20;7.70;;;;;;;10.76;56.78;99919.16;124013;1308;5570856;-66
2024/03/09 11:20:28;;;;;;;;;;;;;;;;;;;;;
2024/03/09 11:24:29;;;;;;;14.50;9.20;;;;;;;10.74;56.11;99915.55;124764;1310;114959;-67
2024/03/09 11:32:57;;;;;;;;;;;;;;;;;;;;;
2024/03/09 11:37:01;;;;;;;15.30;7.80;;;;;;;11.43;56.27;99886.38;127287;1286;128554;-68
2024/03/09 11:41:06;;;;;;;12.20;7.50;;;;;;;11.67;55.38;99887.05;126514;1302;114822;-63
2024/03/09 11:45:14;;;;;;;8.60;6.20;;;;;;;11.75;54.06;99877.52;122076;1298;5458858;-63
2024/03/09 11:49:16;;;;;;;12.20;7.50;;;;;;;11.73;54.31;99867.21;124261;1312;114996;-64
2024/03/09 11:57:38;;;;;;;;;;;;;;;;;;;;;
2024/03/09 12:01:32;;;;;;;9.20;5.60;;;;;;;11.89;53.68;99875.73;127515;1278;128804;-62
2024/03/09 12:05:40;;;;;;;9.90;6.90;;;;;;;11.94;54.20;99866.30;127581;1284;114839;-63
2024/03/09 12:09:34;;;;;;;8.90;5.70;;;;;;;12.16;54.44;99873.36;122024;1288;5496430;-62
2024/03/09 12:13:29;;;;;;;13.40;8.20;;;;;;;12.22;53.53;99864.79;126476;1292;114858;-62
2024/03/09 12:17:23;;;;;;;;;;;;;;;;;;;;;
2024/03/09 12:21:19;;;;;;;13.00;8.10;;;;;;;12.12;53.27;99857.87;124138;1316;129732;-63
2024/03/09 12:33:37;;;;;;;12.20;8.00;;;;;;;11.90;52.68;99846.17;128429;1295;129236;-63
2024/03/09 12:37:39;;;;;;;12.40;7.50;;;;;;;11.92;53.06;99844.08;126977;1291;116406;-63
2024/03/09 12:41:45;;;;;;;11.00;7.80;;;;;;;12.01;53.39;99844.58;123898;1296;3460271;-63
2024/03/09 12:45:46;;;;;;;12.40;7.80;;;;;;;12.07;53.14;99840.63;125916;1299;114920;-63
2024/03/09 12:49:47;;;;;;;;;;;;;;;;;;;;;
2024/03/09 12:57:03;;;;;;;12.20;7.80;;;;;;;11.93;53.03;99830.23;126847;1286;635870;-61
2024/03/09 13:00:11;;;;;;;12.90;9.10;;;;;;;11.87;52.54;99824.83;128946;1272;128730;-60
2024/03/09 13:03:17;;;;;;;13.60;9.00;;;;;;;11.84;53.12;99826.98;129134;1286;114793;-64
2024/03/09 13:06:20;;;;;;;13.90;8.30;;;;;;;11.81;53.38;99828.65;129053;1272;114845;-62
2024/03/09 13:09:30;;;;;;;14.30;9.00;;;;;;;11.74;52.95;99826.88;128931;1265;423757;-62
2024/03/09 13:12:33;;;;;;;12.00;7.60;;;;;;;11.66;53.29;99825.44;129461;1267;114804;-65
2024/03/09 13:15:37;;;;;;;13.50;8.70;;;;;;;11.60;52.84;99817.92;129465;1284;114731;-62
2024/03/09 13:18:39;;;;;;;12.60;7.80;;;;;;;11.53;52.93;99815.34;129281;1269;114798;-62
2024/03/09 13:21:43;;;;;;;13.60;8.20;;;;;;;11.51;52.99;99810.98;129483;1265;114722;-62
2024/03/09 13:24:48;;;;;;;12.80;6.30;;;;;;;11.50;53.63;99804.38;129289;1270;114869;-62
2024/03/09 13:27:50;;;;;;;14.00;8.40;;;;;;;11.55;53.26;99798.38;129499;1266;114787;-62
2024/03/09 13:30:54;;;;;;;13.50;8.10;;;;;;;11.62;53.93;99792.27;129474;1284;115023;-62
2024/03/09 13:33:58;;;;;;;9.70;5.50;;;;;;;11.71;53.65;99792.05;129352;1266;114829;-62
2024/03/09 13:37:00;;;;;;;13.40;7.50;;;;;;;11.69;53.36;99790.15;129504;1263;115226;-62
2024/03/09 13:40:02;;;;;;;12.30;7.20;;;;;;;11.63;53.19;99788.40;129630;1266;114727;-62
2024/03/09 13:43:05;;;;;;;10.20;6.50;;;;;;;11.50;53.22;99782.60;130005;1263;115401;-62
2024/03/09 13:46:07;;;;;;;12.00;8.10;;;;;;;11.40;53.08;99778.93;129914;1278;114797;-62
2024/03/09 13:49:12;;;;;;;14.00;8.10;;;;;;;11.34;52.79;99776.56;129984;1260;114693;-63
2024/03/09 13:52:14;;;;;;;13.20;7.90;;;;;;;11.33;52.80;99772.90;129900;1257;128191;-64
2024/03/09 13:55:16;;;;;;;9.50;5.60;;;;;;;11.37;53.34;99767.98;129878;1278;115193;-64
2024/03/09 13:58:19;;;;;;;11.20;6.80;;;;;;;11.44;52.98;99763.85;130022;1273;114721;-64
2024/03/09 14:01:21;;;;;;;11.80;7.20;;;;;;;11.46;53.55;99760.29;130146;1260;114717;-66
2024/03/09 14:04:23;;;;;;;13.70;8.80;;;;;;;11.50;53.44;99761.30;129728;1265;114714;-62
2024/03/09 14:07:27;;;;;;;12.60;8.00;;;;;;;11.48;53.14;99754.80;130019;1279;114756;-63
2024/03/09 14:10:34;;;;;;;14.00;8.20;;;;;;;11.43;53.13;99752.08;130101;1260;114794;-63
2024/03/09 14:13:37;;;;;;;15.80;8.90;;;;;;;11.38;53.60;99745.97;129829;1278;114782;-64
2024/03/09 14:16:39;;;;;;;14.70;9.90;;;;;;;11.39;53.56;99741.24;129906;1260;114776;-64
2024/03/09 14:19:46;;;;;;;11.70;8.50;;;;;;;11.42;53.72;99740.55;130059;1260;114784;-61
2024/03/09 14:22:51;;;;;;;10.80;6.60;;;;;;;11.38;53.13;99735.78;129986;1264;114820;-66
2024/03/09 14:25:54;;;;;;;13.40;8.10;;;;;;;11.31;53.40;99730.81;130026;1279;128940;-62
2024/03/09 14:28:58;;;;;;;12.20;7.00;;;;;;;11.30;53.40;99723.92;130017;1276;114781;-64
2024/03/09 14:32:00;;;;;;;11.70;6.90;;;;;;;11.30;53.53;99727.70;129922;1263;114756;-63
2024/03/09 14:35:13;;;;;;;12.80;8.80;;;;;;;11.31;53.70;99729.23;129975;1260;114837;-62
2024/03/09 14:38:16;;;;;;;14.70;8.80;;;;;;;11.33;53.82;99727.30;129742;1278;116428;-68
2024/03/09 14:41:18;;;;;;;13.70;8.30;;;;;;;11.36;53.95;99729.27;129846;1278;114801;-68
2024/03/09 14:44:20;;;;;;;13.50;8.90;;;;;;;11.34;53.67;99732.61;129908;1260;114798;-69
2024/03/09 14:47:27;;;;;;;13.30;8.30;;;;;;;11.30;53.86;99730.56;130136;1260;114740;-65
2024/03/09 14:50:33;;;;;;;12.80;7.50;;;;;;;11.28;53.99;99726.34;129978;1279;114734;-70
2024/03/09 14:53:40;;;;;;;12.10;7.60;;;;;;;11.25;53.97;99727.65;129825;1263;115385;-65
2024/03/09 14:56:42;;;;;;;9.50;6.50;;;;;;;11.20;53.90;99722.21;130095;1278;128837;-69
2024/03/09 14:59:47;;;;;;;12.60;8.50;;;;;;;11.16;53.97;99723.39;130125;1260;115256;-62
2024/03/09 15:02:53;;;;;;;12.70;7.90;;;;;;;11.09;53.96;99724.66;130079;1266;115076;-64
2024/03/09 15:05:56;;;;;;;9.50;5.90;;;;;;;11.04;54.07;99723.02;130055;1260;115429;-63
2024/03/09 15:08:58;;;;;;;11.50;7.00;;;;;;;11.01;54.35;99725.89;129969;1260;114749;-68
2024/03/09 15:12:00;;;;;;;9.80;6.40;;;;;;;10.96;54.59;99723.81;130176;1278;114724;-70
2024/03/09 15:15:03;;;;;;;9.70;6.60;;;;;;;10.91;54.71;99722.54;130121;1260;128520;-72
2024/03/09 15:18:09;;;;;;;10.90;6.10;;;;;;;10.88;54.54;99724.34;130051;1257;114748;-67
2024/03/09 15:21:11;;;;;;;8.20;5.40;;;;;;;10.81;54.48;99719.73;129996;1260;115099;-71
2024/03/09 15:24:14;;;;;;;11.10;6.80;;;;;;;10.75;54.68;99718.98;129956;1260;114909;-73
2024/03/09 15:27:16;;;;;;;9.60;6.40;;;;;;;10.71;54.49;99720.71;130029;1260;114724;-73
2024/03/09 15:30:21;;;;;;;7.90;5.30;;;;;;;10.69;54.89;99723.34;130248;1257;115706;-74
2024/03/09 15:33:23;;;;;;;8.70;4.80;;;;;;;10.65;54.65;99722.82;129871;1260;128257;-64
2024/03/09 15:36:26;;;;;;;8.30;5.10;;;;;;;10.60;54.32;99719.20;129841;1279;115347;-63
2024/03/09 15:39:31;;;;;;;7.30;4.40;;;;;;;10.55;54.53;99718.95;130090;1260;115230;-61
2024/03/09 15:42:37;;;;;;;11.70;4.80;;;;;;;10.51;54.75;99716.66;130039;1260;114831;-64
2024/03/09 15:45:39;;;;;;;6.20;4.10;;;;;;;10.48;54.65;99715.77;129575;1258;114757;-64
2024/03/09 15:48:41;;;;;;;7.50;5.30;;;;;;;10.43;54.66;99710.71;129821;1260;115074;-61
2024/03/09 15:51:44;;;;;;;6.90;4.50;;;;;;;10.40;54.82;99705.91;129834;1278;115376;-63
2024/03/09 15:54:54;;;;;;;6.80;4.30;;;;;;;10.38;54.95;99703.33;130009;1260;114798;-62
2024/03/09 15:57:57;;;;;;;8.40;5.10;;;;;;;10.36;54.96;99703.23;129614;1263;114995;-62
2024/03/09 16:01:03;;;;;;;7.50;4.90;;;;;;;10.32;54.69;99700.23;129906;1278;114723;-62
2024/03/09 16:04:09;;;;;;;7.80;4.80;;;;;;;10.30;55.16;99697.34;129516;1279;114873;-62
2024/03/09 16:07:16;;;;;;;9.50;4.50;;;;;;;10.26;55.00;99691.66;129738;1260;129999;-63
2024/03/09 16:10:25;;;;;;;8.90;5.50;;;;;;;10.22;55.03;99691.20;129866;1279;114884;-63
2024/03/09 16:13:27;;;;;;;7.50;4.70;;;;;;;10.18;55.22;99684.30;129940;1260;115330;-63
2024/03/09 16:16:29;;;;;;;7.80;4.50;;;;;;;10.13;54.76;99680.64;129895;1260;115070;-67
2024/03/09 16:19:31;;;;;;;7.50;5.10;;;;;;;10.09;55.05;99681.62;129972;1264;115048;-67
2024/03/09 16:22:33;;;;;;;8.00;4.70;;;;;;;10.05;54.91;99682.31;130031;1279;114790;-63
2024/03/09 16:25:39;;;;;;;8.20;6.00;;;;;;;10.03;55.22;99690.80;129866;1276;114988;-62
2024/03/09 16:28:42;;;;;;;10.00;5.90;;;;;;;10.00;55.39;99690.30;129949;1270;114865;-65
2024/03/09 16:31:44;;;;;;;8.50;4.70;;;;;;;9.98;55.34;99689.00;130000;1260;114741;-62
2024/03/09 16:34:47;;;;;;;7.20;4.60;;;;;;;9.94;55.21;99686.54;129929;1260;114704;-62
2024/03/09 16:37:51;;;;;;;8.30;6.00;;;;;;;9.92;55.26;99686.33;129915;1279;114821;-61
2024/03/09 16:40:55;;;;;;;8.90;6.10;;;;;;;9.89;55.55;99691.10;129827;1269;114869;-62
2024/03/09 16:43:57;;;;;;;8.30;5.30;;;;;;;9.87;55.81;99692.98;129635;1257;114772;-61
2024/03/09 16:46:59;;;;;;;8.50;5.20;;;;;;;9.84;55.41;99692.95;129844;1263;114801;-61
2024/03/09 16:50:01;;;;;;;9.50;6.30;;;;;;;9.81;55.84;99692.61;129820;1279;115271;-61
2024/03/09 16:53:04;;;;;;;9.20;6.00;;;;;;;9.80;55.95;99692.15;130000;1279;114709;-63
2024/03/09 16:56:06;;;;;;;8.90;4.00;;;;;;;9.78;56.01;99694.06;129880;1264;114722;-62
2024/03/09 16:59:08;;;;;;;12.00;5.50;;;;;;;9.76;56.10;99692.57;129943;1260;114801;-62
2024/03/09 17:02:13;;;;;;;7.70;5.40;;;;;;;9.73;56.13;99694.33;129899;1279;114795;-63
2024/03/09 17:05:18;;;;;;;7.90;5.30;;;;;;;9.70;56.31;99693.04;129784;1262;114711;-68
2024/03/09 17:08:20;;;;;;;8.60;6.20;;;;;;;9.68;56.65;99696.18;129783;1260;115186;-68
2024/03/09 17:11:26;;;;;;;8.20;5.40;;;;;;;9.66;56.52;99696.14;129976;1279;114699;-66
2024/03/09 17:14:34;;;;;;;9.80;5.60;;;;;;;9.64;56.70;99693.38;130020;1279;114740;-62
2024/03/09 17:17:36;;;;;;;8.30;4.80;;;;;;;9.64;56.66;99695.02;129889;1260;128717;-64
2024/03/09 17:20:38;;;;;;;11.20;7.00;;;;;;;9.62;56.68;99692.08;129887;1279;114785;-64
2024/03/09 17:23:41;;;;;;;10.50;5.60;;;;;;;9.61;56.72;99694.80;130122;1260;114820;-62
2024/03/09 17:26:43;;;;;;;8.20;5.60;;;;;;;9.60;56.79;99694.85;130154;1260;115086;-66
2024/03/09 17:29:45;;;;;;;7.70;4.30;;;;;;;9.59;56.84;99697.22;129776;1279;114857;-74
2024/03/09 17:32:49;;;;;;;11.40;6.40;;;;;;;9.59;56.83;99699.20;129880;1260;115320;-65
2024/03/09 17:35:52;;;;;;;9.50;6.10;;;;;;;9.57;57.05;99695.00;129856;1279;114721;-67
2024/03/09 17:38:55;;;;;;;9.40;5.90;;;;;;;9.56;57.03;99698.45;129937;1279;115205;-67
2024/03/09 17:41:57;;;;;;;11.70;5.40;;;;;;;9.54;57.08;99697.65;130002;1267;115208;-67
2024/03/09 17:45:00;;;;;;;8.30;5.60;;;;;;;9.53;57.19;99696.45;129884;1260;114803;-66
2024/03/09 17:48:07;;;;;;;8.40;4.90;;;;;;;9.52;57.09;99696.71;130051;1260;114741;-67
2024/03/09 17:51:12;;;;;;;9.70;5.40;;;;;;;9.51;57.44;99692.73;130000;1261;114777;-66
2024/03/09 17:54:14;;;;;;;10.10;7.10;;;;;;;9.49;57.15;99691.34;130149;1269;131344;-65
2024/03/09 17:57:17;;;;;;;9.30;5.50;;;;;;;9.48;57.47;99692.30;130024;1275;114770;-71
2024/03/09 18:00:23;;;;;;;8.10;4.50;;;;;;;9.47;57.62;99692.56;130135;1260;114724;-70
2024/03/09 18:03:25;;;;;;;10.70;6.20;;;;;;;9.46;57.47;99691.15;129850;1263;114823;-69
2024/03/09 18:06:29;;;;;;;11.40;7.30;;;;;;;9.45;57.52;99685.68;130002;1260;114704;-65
2024/03/09 18:09:31;;;;;;;8.50;5.60;;;;;;;9.45;57.74;99685.00;130091;1279;114837;-64
2024/03/09 18:12:34;;;;;;;11.90;6.50;;;;;;;9.44;57.62;99683.80;130063;1278;114764;-70
2024/03/09 18:15:37;;;;;;;11.40;5.50;;;;;;;9.43;57.81;99686.52;129992;1260;114810;-66
2024/03/09 18:18:39;;;;;;;10.90;6.50;;;;;;;9.43;57.72;99685.09;129982;1260;114780;-69
2024/03/09 18:21:42;;;;;;;9.80;6.20;;;;;;;9.41;57.88;99685.50;129936;1278;114738;-70
2024/03/09 18:24:44;;;;;;;9.80;5.60;;;;;;;9.42;58.01;99685.52;130039;1278;114743;-68
2024/03/09 18:27:54;;;;;;;9.30;5.00;;;;;;;9.41;57.97;99680.36;130020;1278;114821;-70
2024/03/09 18:30:57;;;;;;;10.90;7.00;;;;;;;9.41;58.16;99673.08;130092;1278;114794;-68
2024/03/09 18:34:01;;;;;;;9.00;5.80;;;;;;;9.40;58.02;99674.90;130159;1260;114701;-68
2024/03/09 18:37:05;;;;;;;11.10;6.70;;;;;;;9.39;58.23;99674.05;130093;1260;114711;-70
2024/03/09 18:40:10;;;;;;;10.30;6.40;;;;;;;9.38;58.26;99669.64;129886;1279;114708;-70
2024/03/09 18:43:14;;;;;;;10.20;5.80;;;;;;;9.37;58.29;99669.52;129836;1263;128044;-72
2024/03/09 18:46:19;;;;;;;12.50;6.50;;;;;;;9.36;58.35;99666.36;130069;1278;114788;-72
2024/03/09 18:49:23;;;;;;;12.40;7.20;;;;;;;9.36;58.45;99667.30;130083;1260;114749;-72
2024/03/09 18:52:25;;;;;;;11.00;6.30;;;;;;;9.36;58.58;99664.47;130092;1269;114702;-71
2024/03/09 18:55:28;;;;;;;11.00;6.00;;;;;;;9.35;58.47;99664.67;129912;1258;114705;-73
2024/03/09 18:58:30;;;;;;;12.40;8.00;;;;;;;9.34;58.76;99662.77;130133;1260;114809;-68
2024/03/09 19:01:33;;;;;;;11.50;7.50;;;;;;;9.34;58.75;99660.83;130106;1279;114724;-71
2024/03/09 19:04:35;;;;;;;9.40;6.30;;;;;;;9.33;58.89;99662.66;130234;1278;114740;-66
2024/03/09 19:07:37;;;;;;;10.70;6.90;;;;;;;9.33;58.66;99662.66;130121;1260;114718;-71
2024/03/09 19:10:43;;;;;;;16.60;12.00;;;;;;;9.32;58.82;99662.00;130158;1278;114780;-71
2024/03/09 19:13:45;;;;;;;9.40;5.80;;;;;;;9.31;59.00;99662.03;130015;1278;115436;-71
2024/03/09 19:16:47;;;;;;;13.20;7.40;;;;;;;9.30;59.09;99660.65;130021;1269;114964;-61
2024/03/09 19:19:50;;;;;;;12.60;7.90;;;;;;;9.31;58.89;99660.45;130069;1260;114864;-64
2024/03/09 19:22:53;;;;;;;11.10;6.70;;;;;;;9.30;59.09;99653.37;130047;1260;114727;-62
2024/03/09 19:25:55;;;;;;;13.50;8.50;;;;;;;9.29;59.08;99656.59;129901;1263;114686;-62
2024/03/09 19:29:01;;;;;;;12.20;7.30;;;;;;;9.28;59.11;99654.70;129903;1269;114772;-62
2024/03/09 19:32:05;;;;;;;12.20;7.20;;;;;;;9.27;59.20;99651.17;129774;1262;114712;-62
2024/03/09 19:35:10;;;;;;;12.80;8.10;;;;;;;9.27;59.25;99646.91;129893;1278;114786;-62
2024/03/09 19:38:14;;;;;;;12.30;8.40;;;;;;;9.26;59.37;99645.21;129960;1261;128496;-62
2024/03/09 19:41:16;;;;;;;13.10;8.20;;;;;;;9.24;59.44;99639.61;130004;1260;114707;-61
2024/03/09 19:44:18;;;;;;;8.20;5.10;;;;;;;9.23;59.44;99639.49;129878;1269;115243;-62
2024/03/09 19:47:20;;;;;;;14.30;7.60;;;;;;;9.21;59.33;99642.41;130046;1260;114716;-62